Time;durP1;ratioP1;P1;durP2;ratioP2;P2;SDS_P1;SDS_P2;PMS_P1;PMS_P2;Temp;Humidity;BMP_temperature;BMP_pressure;BME280_temperature;BME280_humidity;BME280_pressure;Samples;Min_cycle;Max_cycle;Signal;HPM_P1;HPM_P2
2021/04/29 00:01:38;;;;;;;32.22;11.93;;;;;;;10.76;100.00;100126.41;5172444;28;20031;-77
2021/04/29 00:04:10;;;;;;;26.65;12.57;;;;;;;10.75;100.00;100127.41;5185908;28;20034;-76
2021/04/29 00:06:40;;;;;;;23.60;11.70;;;;;;;10.66;100.00;100125.84;5182158;28;20038;-76
2021/04/29 00:09:11;;;;;;;22.17;11.25;;;;;;;10.70;100.00;100124.47;5165514;28;20026;-76
2021/04/29 00:11:42;;;;;;;26.33;11.82;;;;;;;10.61;100.00;100126.38;5165321;28;20030;-77
2021/04/29 00:14:13;;;;;;;25.60;12.88;;;;;;;10.52;100.00;100119.44;5177213;28;20034;-76
2021/04/29 00:16:43;;;;;;;25.15;12.10;;;;;;;10.60;100.00;100119.38;5185747;28;20022;-76
2021/04/29 00:19:14;;;;;;;24.65;12.52;;;;;;;10.52;100.00;100122.94;5172067;28;20089;-78
2021/04/29 00:21:44;;;;;;;22.13;12.05;;;;;;;10.55;100.00;100127.97;5165165;28;20081;-76
2021/04/29 00:24:15;;;;;;;23.35;12.40;;;;;;;10.59;100.00;100126.56;5165235;28;20037;-76
2021/04/29 00:26:46;;;;;;;24.67;11.85;;;;;;;10.50;100.00;100119.63;5172984;28;20022;-76
2021/04/29 00:29:16;;;;;;;24.25;11.48;;;;;;;10.35;100.00;100116.94;5172120;28;20042;-78
2021/04/29 00:31:46;;;;;;;20.77;10.80;;;;;;;10.31;100.00;100118.31;5185883;28;20037;-76
2021/04/29 00:34:17;;;;;;;21.75;11.57;;;;;;;10.31;100.00;100125.50;5185237;28;20040;-76
2021/04/29 00:36:49;;;;;;;20.42;11.30;;;;;;;10.35;100.00;100141.06;5175133;28;20022;-76
2021/04/29 00:39:19;;;;;;;24.95;11.27;;;;;;;10.42;97.79;100146.50;5169120;28;20022;-76
2021/04/29 00:41:50;;;;;;;24.08;11.48;;;;;;;10.41;96.08;100146.72;5173568;28;20366;-76
2021/04/29 00:44:21;;;;;;;26.65;11.30;;;;;;;10.43;93.62;100153.53;5164527;28;20026;-76
2021/04/29 00:46:51;;;;;;;25.08;10.65;;;;;;;10.42;93.71;100148.38;5162842;28;20068;-76
2021/04/29 00:49:22;;;;;;;19.80;10.07;;;;;;;10.44;94.01;100152.56;5174312;28;20026;-76
2021/04/29 00:51:52;;;;;;;22.52;11.27;;;;;;;10.48;92.59;100142.25;5181028;28;20479;-76
2021/04/29 00:54:23;;;;;;;23.45;10.95;;;;;;;10.46;94.83;100129.06;5173336;28;20027;-76
2021/04/29 00:56:53;;;;;;;24.85;10.65;;;;;;;10.48;94.07;100135.06;5170529;28;20515;-76
2021/04/29 00:59:24;;;;;;;18.90;9.85;;;;;;;10.42;97.88;100133.09;5163047;28;20034;-75
2021/04/29 01:02:01;;;;;;;25.50;12.50;;;;;;;10.32;100.00;100128.00;5181538;28;20080;-76
2021/04/29 01:04:36;;;;;;;21.58;10.90;;;;;;;10.34;96.76;100122.44;5178475;28;20494;-76
2021/04/29 01:07:11;;;;;;;24.40;10.63;;;;;;;10.30;99.34;100123.84;5170949;28;20045;-76
2021/04/29 01:09:47;;;;;;;20.77;9.73;;;;;;;10.24;97.61;100124.56;5174129;28;20088;-76
2021/04/29 01:12:23;;;;;;;22.15;9.85;;;;;;;10.24;97.36;100122.72;5175489;28;20121;-76
2021/04/29 01:14:57;;;;;;;22.15;10.43;;;;;;;10.24;97.59;100114.69;5163964;28;20164;-76
2021/04/29 01:17:29;;;;;;;24.10;11.68;;;;;;;10.16;99.69;100114.72;5175587;28;20072;-76
2021/04/29 01:20:08;;;;;;;28.80;12.40;;;;;;;10.17;100.00;100102.97;5165128;28;20027;-76
2021/04/29 01:22:44;;;;;;;21.58;11.75;;;;;;;10.04;100.00;100098.25;5165068;28;20037;-76
2021/04/29 01:25:15;;;;;;;;;;;;;;;9.99;100.00;100105.13;5179287;28;20022;-77
2021/04/29 01:27:46;;;;;;;31.58;15.35;;;;;;;9.91;100.00;100116.78;5167790;28;19909;-76
2021/04/29 01:30:17;;;;;;;31.90;15.60;;;;;;;9.96;100.00;100114.38;5173791;28;20072;-76
2021/04/29 01:32:48;;;;;;;30.40;15.45;;;;;;;9.93;100.00;100120.09;5166349;28;20037;-76
2021/04/29 01:35:20;;;;;;;32.88;17.10;;;;;;;10.00;100.00;100106.84;5162881;28;20069;-76
2021/04/29 01:37:52;;;;;;;37.03;19.25;;;;;;;9.90;100.00;100116.97;5175518;28;20046;-76
2021/04/29 01:40:24;;;;;;;39.95;19.98;;;;;;;9.81;100.00;100125.06;5177116;28;20473;-78
2021/04/29 01:42:55;;;;;;;42.72;21.70;;;;;;;9.72;100.00;100114.56;5181099;28;20373;-78
2021/04/29 01:45:28;;;;;;;42.55;20.65;;;;;;;9.71;100.00;100112.91;5170782;28;20038;-78
2021/04/29 01:47:59;;;;;;;46.10;21.48;;;;;;;9.78;100.00;100120.03;5170622;28;20106;-78
2021/04/29 01:50:30;;;;;;;44.33;21.17;;;;;;;9.78;100.00;100124.56;5190999;28;20030;-77
2021/04/29 01:53:04;;;;;;;45.80;23.48;;;;;;;9.65;100.00;100141.25;5177437;28;20068;-78
2021/04/29 01:55:34;;;;;;;46.30;22.50;;;;;;;9.70;100.00;100136.19;5174594;28;20044;-78
2021/04/29 01:58:05;;;;;;;46.08;22.88;;;;;;;9.65;100.00;100137.75;5181432;28;20392;-78
2021/04/29 02:00:36;;;;;;;46.38;23.55;;;;;;;9.68;100.00;100137.38;5181868;28;20022;-77
2021/04/29 02:03:06;;;;;;;45.00;22.63;;;;;;;9.67;100.00;100141.06;5166689;28;20026;-76
2021/04/29 02:05:37;;;;;;;43.80;22.88;;;;;;;9.59;100.00;100145.47;5167909;28;20060;-76
2021/04/29 02:08:08;;;;;;;51.92;24.33;;;;;;;9.52;100.00;100147.16;5168124;28;20037;-78
2021/04/29 02:10:39;;;;;;;39.65;23.35;;;;;;;9.51;100.00;100150.03;5179382;28;20026;-78
2021/04/29 02:13:13;;;;;;;47.72;24.25;;;;;;;9.43;100.00;100158.94;5181403;28;20029;-78
2021/04/29 02:15:50;;;;;;;45.85;23.95;;;;;;;9.37;100.00;100166.84;5188502;28;20530;-78
2021/04/29 02:18:22;;;;;;;45.67;24.33;;;;;;;9.28;100.00;100174.06;5187859;28;20038;-78
2021/04/29 02:20:54;;;;;;;50.53;23.95;;;;;;;9.17;100.00;100180.63;5187144;28;20034;-78
2021/04/29 02:23:25;;;;;;;42.70;23.10;;;;;;;9.10;100.00;100174.31;5182228;28;20036;-77
2021/04/29 02:25:57;;;;;;;44.20;24.88;;;;;;;9.02;100.00;100172.50;5180878;28;20025;-78
2021/04/29 02:28:29;;;;;;;44.42;23.40;;;;;;;8.99;100.00;100167.50;5173682;28;20492;-78
2021/04/29 02:31:03;;;;;;;46.15;23.02;;;;;;;8.96;100.00;100177.72;5187123;28;20029;-78
2021/04/29 02:33:35;;;;;;;46.10;24.63;;;;;;;8.94;100.00;100179.72;5176318;28;20022;-77
2021/04/29 02:36:09;;;;;;;48.88;23.27;;;;;;;8.96;100.00;100173.19;5187928;28;20391;-78
2021/04/29 02:38:39;;;;;;;48.25;23.70;;;;;;;8.95;100.00;100174.19;5177319;28;20034;-78
2021/04/29 02:41:10;;;;;;;48.83;23.30;;;;;;;8.90;100.00;100173.06;5186635;28;20026;-78
2021/04/29 02:43:41;;;;;;;47.67;23.63;;;;;;;8.94;100.00;100172.53;5176203;28;20037;-78
2021/04/29 02:46:12;;;;;;;45.47;23.23;;;;;;;8.87;100.00;100173.38;5173288;28;20376;-78
2021/04/29 02:48:43;;;;;;;45.63;22.25;;;;;;;8.83;100.00;100170.22;5169705;28;20026;-77
2021/04/29 02:51:14;;;;;;;42.30;22.88;;;;;;;8.78;100.00;100176.06;5183333;28;20407;-77
2021/04/29 02:53:45;;;;;;;37.42;21.08;;;;;;;8.70;100.00;100181.44;5170548;28;20066;-78
2021/04/29 02:56:15;;;;;;;45.45;23.42;;;;;;;8.66;100.00;100180.13;5169611;28;20072;-78
2021/04/29 02:58:48;;;;;;;43.90;22.73;;;;;;;8.56;100.00;100176.78;5185477;28;20120;-78
2021/04/29 03:01:19;;;;;;;40.67;22.35;;;;;;;8.46;100.00;100176.97;5180034;28;20022;-76
2021/04/29 03:03:50;;;;;;;51.15;25.25;;;;;;;8.37;100.00;100174.47;5187766;28;20030;-78
2021/04/29 03:06:21;;;;;;;43.25;23.50;;;;;;;8.25;100.00;100185.47;5191105;28;20093;-78
2021/04/29 03:08:52;;;;;;;46.88;22.73;;;;;;;8.09;100.00;100179.31;5190769;28;20467;-78
2021/04/29 03:11:22;;;;;;;51.80;24.77;;;;;;;7.97;100.00;100190.28;5177013;28;20037;-78
2021/04/29 03:13:53;;;;;;;48.72;25.52;;;;;;;7.91;100.00;100188.28;5177598;28;20034;-78
2021/04/29 03:16:23;;;;;;;54.70;28.10;;;;;;;7.84;100.00;100187.28;5175211;28;20018;-76
2021/04/29 03:18:54;;;;;;;57.08;29.15;;;;;;;7.76;100.00;100196.09;5187440;28;20033;-78
2021/04/29 03:21:24;;;;;;;52.88;28.83;;;;;;;7.66;100.00;100191.91;5171095;28;20030;-78
2021/04/29 03:23:55;;;;;;;62.80;29.88;;;;;;;7.56;100.00;100199.22;5167746;28;20117;-78
2021/04/29 03:26:25;;;;;;;59.47;30.65;;;;;;;7.50;100.00;100206.06;5171729;28;20018;-78
2021/04/29 03:28:56;;;;;;;68.75;32.60;;;;;;;7.45;100.00;100203.03;5187803;28;20026;-78
2021/04/29 03:31:26;;;;;;;68.90;32.50;;;;;;;7.35;100.00;100207.66;5174523;28;20530;-78
2021/04/29 03:33:57;;;;;;;65.97;32.50;;;;;;;7.25;100.00;100208.63;5174874;28;20113;-77
2021/04/29 03:36:27;;;;;;;70.10;33.33;;;;;;;7.21;100.00;100214.44;5180739;28;20065;-78
2021/04/29 03:38:58;;;;;;;69.95;34.25;;;;;;;7.18;100.00;100212.94;5180341;28;20079;-77
2021/04/29 03:41:28;;;;;;;69.30;32.10;;;;;;;7.21;100.00;100211.78;5186372;28;20033;-77
2021/04/29 03:43:59;;;;;;;75.93;34.72;;;;;;;7.24;100.00;100203.47;5172679;28;20022;-77
2021/04/29 03:46:29;;;;;;;70.78;31.88;;;;;;;7.29;100.00;100214.50;5174651;28;20092;-77
2021/04/29 03:48:59;;;;;;;72.15;34.50;;;;;;;7.32;100.00;100224.00;5167105;28;20022;-77
2021/04/29 03:51:30;;;;;;;64.32;32.78;;;;;;;7.29;100.00;100219.00;5165599;28;20023;-76
2021/04/29 03:54:00;;;;;;;74.63;32.30;;;;;;;7.24;100.00;100222.13;5178937;28;20026;-77
2021/04/29 03:56:31;;;;;;;77.75;34.38;;;;;;;7.23;100.00;100223.13;5181492;28;20023;-77
2021/04/29 03:59:02;;;;;;;120.43;57.17;;;;;;;7.19;100.00;100232.44;5184531;28;20108;-75
2021/04/29 04:01:32;;;;;;;155.93;78.70;;;;;;;7.12;100.00;100236.72;5171568;28;20023;-77
2021/04/29 04:04:03;;;;;;;108.93;53.05;;;;;;;7.04;100.00;100237.53;5166291;28;20085;-78
2021/04/29 04:06:33;;;;;;;114.97;53.13;;;;;;;6.98;100.00;100238.19;5178948;28;20030;-77
2021/04/29 04:09:04;;;;;;;106.80;52.30;;;;;;;6.90;100.00;100235.44;5164578;28;20073;-78
2021/04/29 04:11:34;;;;;;;102.68;46.53;;;;;;;6.90;100.00;100238.94;5179036;28;20454;-78
2021/04/29 04:14:05;;;;;;;88.28;39.03;;;;;;;6.87;100.00;100252.59;5165658;28;20057;-77
2021/04/29 04:16:35;;;;;;;88.90;39.25;;;;;;;6.86;100.00;100253.59;5165112;28;20023;-77
2021/04/29 04:19:06;;;;;;;79.30;37.75;;;;;;;6.95;100.00;100255.31;5180718;28;20034;-77
2021/04/29 04:21:36;;;;;;;81.38;38.58;;;;;;;7.04;100.00;100258.88;5169236;28;20488;-78
2021/04/29 04:24:07;;;;;;;84.32;37.55;;;;;;;7.09;100.00;100261.91;5201505;28;20116;-78
2021/04/29 04:26:37;;;;;;;83.78;39.10;;;;;;;7.16;100.00;100268.28;5180513;28;20121;-77
2021/04/29 04:29:07;;;;;;;81.70;38.25;;;;;;;7.21;100.00;100265.97;5177192;28;20022;-78
2021/04/29 04:31:38;;;;;;;82.38;38.20;;;;;;;7.28;100.00;100274.19;5165686;28;20141;-78
2021/04/29 04:34:08;;;;;;;81.78;39.42;;;;;;;7.35;100.00;100274.38;5178230;28;20040;-78
2021/04/29 04:36:39;;;;;;;81.40;36.55;;;;;;;7.41;100.00;100269.22;5185480;28;20049;-78
2021/04/29 04:39:09;;;;;;;75.00;36.40;;;;;;;7.46;100.00;100264.25;5187017;28;20037;-77
2021/04/29 04:41:40;;;;;;;80.70;37.20;;;;;;;7.51;100.00;100264.59;5183887;28;20030;-78
2021/04/29 04:44:11;;;;;;;71.30;37.00;;;;;;;7.52;100.00;100266.28;5180629;28;20022;-78
2021/04/29 04:46:41;;;;;;;79.72;35.33;;;;;;;7.59;100.00;100262.97;5179547;28;20064;-76
2021/04/29 04:49:12;;;;;;;70.03;34.63;;;;;;;7.63;100.00;100258.97;5172710;28;20030;-78
2021/04/29 04:51:42;;;;;;;77.97;34.45;;;;;;;7.57;100.00;100257.78;5188727;28;20363;-78
2021/04/29 04:54:16;;;;;;;79.75;34.60;;;;;;;7.54;100.00;100263.47;5188732;28;20484;-78
2021/04/29 04:56:47;;;;;;;75.57;35.35;;;;;;;7.52;100.00;100278.78;5199982;28;20036;-76
2021/04/29 04:59:17;;;;;;;78.03;35.45;;;;;;;7.52;100.00;100279.63;5188675;28;20116;-78
2021/04/29 05:01:48;;;;;;;76.13;35.45;;;;;;;7.62;100.00;100268.81;5187479;28;20084;-77
2021/04/29 05:04:18;;;;;;;79.45;36.85;;;;;;;7.64;100.00;100280.19;5175562;28;20101;-77
2021/04/29 05:06:49;;;;;;;78.35;35.78;;;;;;;7.67;100.00;100274.50;5186293;28;20409;-78
2021/04/29 05:09:19;;;;;;;78.95;36.38;;;;;;;7.73;100.00;100273.88;5176391;28;20061;-78
2021/04/29 05:11:50;;;;;;;80.20;36.67;;;;;;;7.76;100.00;100276.22;5172334;28;20022;-78
2021/04/29 05:14:20;;;;;;;75.30;35.90;;;;;;;7.81;100.00;100273.06;5177981;28;20033;-78
2021/04/29 05:16:51;;;;;;;76.50;36.75;;;;;;;7.83;100.00;100275.56;5189409;28;20034;-78
2021/04/29 05:19:21;;;;;;;77.80;36.03;;;;;;;7.86;100.00;100278.75;5176091;28;20076;-78
2021/04/29 05:21:52;;;;;;;73.35;34.40;;;;;;;7.96;100.00;100276.78;5182113;28;20037;-76
2021/04/29 05:24:22;;;;;;;79.70;35.55;;;;;;;8.02;100.00;100280.63;5169242;28;20094;-78
2021/04/29 05:26:53;;;;;;;68.10;32.55;;;;;;;8.13;100.00;100282.16;5181965;28;20483;-78
2021/04/29 05:29:23;;;;;;;65.18;31.90;;;;;;;8.21;100.00;100287.50;5168492;28;20030;-77
2021/04/29 05:31:54;;;;;;;65.57;31.17;;;;;;;8.26;100.00;100287.84;5168353;28;20454;-76
2021/04/29 05:34:25;;;;;;;76.63;32.55;;;;;;;8.19;100.00;100285.00;5165559;28;20026;-77
2021/04/29 05:36:55;;;;;;;62.42;30.85;;;;;;;8.21;100.00;100288.34;5166821;28;20105;-78
2021/04/29 05:39:26;;;;;;;66.93;30.92;;;;;;;8.16;100.00;100285.34;5167141;28;20060;-78
2021/04/29 05:41:56;;;;;;;59.03;29.45;;;;;;;8.20;100.00;100283.19;5178466;28;20029;-76
2021/04/29 05:44:27;;;;;;;64.15;30.90;;;;;;;8.19;100.00;100293.03;5186852;28;20026;-77
2021/04/29 05:46:57;;;;;;;59.15;29.42;;;;;;;8.27;100.00;100287.69;5173797;28;20034;-77
2021/04/29 05:49:28;;;;;;;59.42;28.17;;;;;;;8.27;100.00;100282.34;5163103;28;20076;-76
2021/04/29 05:51:58;;;;;;;65.40;34.75;;;;;;;8.28;100.00;100286.72;5163926;28;20042;-77
2021/04/29 05:54:28;;;;;;;57.33;29.40;;;;;;;8.28;100.00;100289.38;5175781;28;20472;-77
2021/04/29 05:56:59;;;;;;;61.65;29.27;;;;;;;8.30;100.00;100289.19;5174085;28;20053;-76
2021/04/29 05:59:29;;;;;;;62.58;29.55;;;;;;;8.46;100.00;100291.91;5183554;28;20033;-75
2021/04/29 06:02:00;;;;;;;51.08;26.58;;;;;;;8.54;100.00;100291.94;5170141;28;20038;-75
2021/04/29 06:04:30;;;;;;;55.40;28.23;;;;;;;8.58;100.00;100289.75;5173694;28;20041;-77
2021/04/29 06:07:01;;;;;;;54.92;27.13;;;;;;;8.50;100.00;100293.25;5175990;28;20030;-77
2021/04/29 06:09:31;;;;;;;53.25;26.85;;;;;;;8.47;100.00;100292.75;5174727;28;20053;-76
2021/04/29 06:12:02;;;;;;;60.42;28.50;;;;;;;8.26;100.00;100306.56;5183209;28;20036;-76
2021/04/29 06:14:33;;;;;;;51.40;25.45;;;;;;;8.20;100.00;100307.22;5170919;28;20037;-78
2021/04/29 06:17:04;;;;;;;52.20;24.90;;;;;;;8.13;100.00;100299.00;5169476;28;20108;-75
2021/04/29 06:19:34;;;;;;;64.28;30.20;;;;;;;8.10;100.00;100304.69;5169598;28;20030;-75
2021/04/29 06:22:05;;;;;;;57.33;30.05;;;;;;;8.15;100.00;100306.88;5182707;28;20025;-75
2021/04/29 06:24:36;;;;;;;57.33;28.83;;;;;;;8.13;100.00;100309.69;5170495;28;20034;-76
2021/04/29 06:27:06;;;;;;;55.55;29.02;;;;;;;8.11;100.00;100318.88;5176314;28;20391;-75
2021/04/29 06:29:37;;;;;;;50.45;24.35;;;;;;;8.05;100.00;100313.19;5174111;28;20102;-75
2021/04/29 06:32:07;;;;;;;48.10;24.25;;;;;;;8.15;100.00;100312.22;5187076;28;20058;-75
2021/04/29 06:34:39;;;;;;;45.33;22.52;;;;;;;8.28;100.00;100315.25;5187249;28;20084;-75
2021/04/29 06:37:09;;;;;;;47.08;20.85;;;;;;;8.37;100.00;100314.28;5176146;28;20023;-78
2021/04/29 06:39:40;;;;;;;38.53;19.40;;;;;;;8.40;100.00;100315.81;5184767;28;20507;-77
2021/04/29 06:42:10;;;;;;;39.40;20.20;;;;;;;8.45;100.00;100322.31;5187095;28;20026;-76
2021/04/29 06:44:41;;;;;;;38.38;18.55;;;;;;;8.61;100.00;100318.00;5167703;28;20037;-77
2021/04/29 06:47:11;;;;;;;39.72;18.13;;;;;;;8.62;100.00;100333.03;5175640;28;20037;-78
2021/04/29 06:49:42;;;;;;;34.55;18.13;;;;;;;8.54;100.00;100323.19;5175096;28;20029;-77
2021/04/29 06:52:14;;;;;;;34.08;16.98;;;;;;;8.53;100.00;100329.50;5184253;28;20041;-77
2021/04/29 06:54:45;;;;;;;40.03;18.23;;;;;;;8.60;100.00;100329.69;5166935;28;20049;-78
2021/04/29 06:57:16;;;;;;;47.20;22.17;;;;;;;8.56;100.00;100335.38;5175109;28;20486;-78
2021/04/29 06:59:46;;;;;;;42.05;21.00;;;;;;;8.54;100.00;100341.91;5166671;28;20456;-77
2021/04/29 07:02:17;;;;;;;49.20;22.13;;;;;;;8.51;100.00;100337.69;5184491;28;20038;-77
2021/04/29 07:04:47;;;;;;;37.67;19.60;;;;;;;8.42;100.00;100338.69;5187178;28;20573;-78
2021/04/29 07:07:18;;;;;;;40.50;20.95;;;;;;;8.40;100.00;100345.22;5172428;28;20038;-81
2021/04/29 07:09:48;;;;;;;50.90;19.80;;;;;;;8.35;100.00;100352.84;5173251;28;20026;-79
2021/04/29 07:12:19;;;;;;;43.85;20.75;;;;;;;8.38;100.00;100353.38;5173789;28;20075;-77
2021/04/29 07:14:49;;;;;;;43.05;20.83;;;;;;;8.37;100.00;100346.38;5174237;28;20026;-77
2021/04/29 07:17:20;;;;;;;55.75;22.98;;;;;;;8.25;100.00;100351.16;5186775;28;20068;-78
2021/04/29 07:19:50;;;;;;;41.78;21.35;;;;;;;8.24;100.00;100352.16;5182174;28;20026;-79
2021/04/29 07:22:21;;;;;;;48.20;21.88;;;;;;;8.29;100.00;100362.38;5161395;28;20026;-79
2021/04/29 07:24:51;;;;;;;49.70;22.02;;;;;;;8.21;100.00;100371.19;5166657;28;20034;-78
2021/04/29 07:27:22;;;;;;;43.72;19.98;;;;;;;8.21;100.00;100373.03;5191179;28;20030;-78
2021/04/29 07:29:53;;;;;;;35.17;18.60;;;;;;;8.12;100.00;100377.50;5165789;28;20560;-78
2021/04/29 07:32:23;;;;;;;41.45;19.52;;;;;;;7.98;100.00;100381.63;5164435;28;20076;-79
2021/04/29 07:34:54;;;;;;;37.90;18.85;;;;;;;7.96;100.00;100374.78;5163470;28;20440;-77
2021/04/29 07:37:24;;;;;;;31.33;18.27;;;;;;;7.91;100.00;100375.25;5164744;28;20069;-78
2021/04/29 07:39:55;;;;;;;38.47;17.42;;;;;;;7.89;100.00;100382.59;5170846;28;20038;-79
2021/04/29 07:42:25;;;;;;;31.67;18.08;;;;;;;7.80;100.00;100391.56;5182527;28;20514;-78
2021/04/29 07:44:56;;;;;;;35.20;17.85;;;;;;;7.85;100.00;100394.59;5165235;28;20373;-79
2021/04/29 07:47:26;;;;;;;33.28;16.88;;;;;;;7.72;100.00;100395.00;5165303;28;20030;-75
2021/04/29 07:49:57;;;;;;;38.30;17.90;;;;;;;7.79;100.00;100397.91;5175105;28;20393;-76
2021/04/29 07:52:27;;;;;;;37.50;16.98;;;;;;;7.85;100.00;100397.25;5180239;28;20076;-77
2021/04/29 07:54:58;;;;;;;36.47;18.02;;;;;;;7.86;100.00;100403.44;5165434;28;20084;-77
2021/04/29 07:57:28;;;;;;;30.58;18.23;;;;;;;7.84;100.00;100400.94;5179828;28;20396;-77
2021/04/29 07:59:59;;;;;;;36.50;18.38;;;;;;;7.86;100.00;100401.59;5172873;28;20037;-81
2021/04/29 08:02:29;;;;;;;65.05;32.88;;;;;;;7.86;100.00;100401.59;5185806;28;20030;-77
2021/04/29 08:05:00;;;;;;;39.08;21.80;;;;;;;8.00;100.00;100400.16;5172246;28;20026;-77
2021/04/29 08:07:30;;;;;;;35.67;16.15;;;;;;;8.02;100.00;100404.34;5185786;28;20029;-76
2021/04/29 08:10:01;;;;;;;26.35;14.95;;;;;;;8.11;100.00;100413.22;5185373;28;20039;-77
2021/04/29 08:12:31;;;;;;;27.30;14.98;;;;;;;8.05;100.00;100422.72;5173979;28;20117;-79
2021/04/29 08:15:02;;;;;;;26.45;12.48;;;;;;;8.03;100.00;100424.75;5163046;28;20018;-78
2021/04/29 08:17:33;;;;;;;23.27;13.57;;;;;;;8.05;100.00;100440.59;5174984;28;20033;-77
2021/04/29 08:20:05;;;;;;;26.77;12.55;;;;;;;8.13;100.00;100443.28;5182176;28;20476;-77
2021/04/29 08:22:35;;;;;;;22.35;11.60;;;;;;;8.11;100.00;100455.16;5171411;28;20081;-78
2021/04/29 08:25:07;;;;;;;24.65;11.93;;;;;;;8.02;100.00;100456.94;5183473;28;20057;-79
2021/04/29 08:27:39;;;;;;;25.60;12.85;;;;;;;7.97;100.00;100452.06;5183835;28;20026;-78
2021/04/29 08:30:10;;;;;;;28.27;12.40;;;;;;;8.03;100.00;100462.13;5182782;28;20034;-78
2021/04/29 08:32:40;;;;;;;30.42;13.02;;;;;;;8.01;100.00;100460.59;5171003;28;20045;-78
2021/04/29 08:35:11;;;;;;;27.52;13.50;;;;;;;8.01;100.00;100468.63;5174702;28;20034;-79
2021/04/29 08:37:41;;;;;;;25.13;13.30;;;;;;;7.97;100.00;100464.59;5176435;28;20113;-79
2021/04/29 08:40:12;;;;;;;25.60;13.23;;;;;;;7.90;100.00;100469.72;5176135;28;20037;-80
2021/04/29 08:42:43;;;;;;;249.60;93.20;;;;;;;7.86;100.00;100481.72;5183856;28;20036;-78
2021/04/29 08:45:14;;;;;;;264.30;80.40;;;;;;;7.70;100.00;100482.47;5183638;28;20018;-78
2021/04/29 08:47:49;;;;;;;122.47;35.72;;;;;;;7.45;100.00;100492.13;5174048;28;20030;-78
2021/04/29 08:50:22;;;;;;;49.40;21.10;;;;;;;7.37;100.00;100494.72;5163712;28;20518;-79
2021/04/29 08:52:54;;;;;;;25.80;15.52;;;;;;;7.25;100.00;100496.78;5183514;28;20037;-79
2021/04/29 08:55:26;;;;;;;31.88;18.70;;;;;;;7.17;100.00;100499.38;5181610;28;20431;-79
2021/04/29 08:57:57;;;;;;;27.60;15.68;;;;;;;7.16;100.00;100504.88;5162803;28;20034;-78
2021/04/29 09:00:27;;;;;;;27.65;15.43;;;;;;;7.11;100.00;100510.66;5185701;28;20045;-79
2021/04/29 09:02:58;;;;;;;31.55;15.88;;;;;;;6.92;100.00;100530.28;5187184;28;20481;-77
2021/04/29 09:05:32;;;;;;;32.00;16.02;;;;;;;6.92;100.00;100530.28;5166139;28;20027;-79
2021/04/29 09:08:07;;;;;;;27.17;15.07;;;;;;;6.80;100.00;100539.50;5163257;28;20030;-80
2021/04/29 09:10:40;;;;;;;26.90;14.77;;;;;;;6.84;100.00;100538.22;5177495;28;20034;-78
2021/04/29 09:13:15;;;;;;;32.33;14.88;;;;;;;6.80;100.00;100544.84;5162368;28;20026;-77
2021/04/29 09:15:46;;;;;;;;;;;;;;;6.73;100.00;100547.25;5173818;28;20401;-79
2021/04/29 09:18:19;;;;;;;36.67;20.25;;;;;;;6.78;100.00;100553.94;5163603;28;19956;-78
2021/04/29 09:20:51;;;;;;;23.60;13.73;;;;;;;6.79;100.00;100561.00;5163895;28;20077;-78
2021/04/29 09:23:25;;;;;;;47.78;23.50;;;;;;;6.93;100.00;100561.31;5167359;28;20033;-76
2021/04/29 09:25:58;;;;;;;68.57;36.55;;;;;;;6.99;100.00;100570.56;5183166;28;20036;-78
2021/04/29 09:28:48;;;;;;;23.35;12.82;;;;;;;7.09;100.00;100571.34;5182271;28;20053;-79
2021/04/29 09:31:21;;;;;;;22.17;10.50;;;;;;;7.14;100.00;100565.53;5170207;28;20492;-80
2021/04/29 09:33:54;;;;;;;15.95;8.85;;;;;;;7.06;100.00;100560.13;5172189;28;20041;-78
2021/04/29 09:36:27;;;;;;;15.10;8.63;;;;;;;6.98;100.00;100575.06;5179544;28;20053;-78
2021/04/29 09:39:03;;;;;;;18.75;10.27;;;;;;;6.80;100.00;100579.50;5169807;28;20149;-78
2021/04/29 09:41:37;;;;;;;18.20;10.00;;;;;;;6.70;100.00;100576.03;5168106;28;20427;-77
2021/04/29 09:44:11;;;;;;;20.48;11.05;;;;;;;6.58;100.00;100587.91;5167997;28;20359;-77
2021/04/29 09:46:44;;;;;;;14.98;9.55;;;;;;;6.53;100.00;100587.50;5162703;28;20560;-77
2021/04/29 09:49:24;;;;;;;17.65;10.07;;;;;;;6.53;100.00;100588.34;5161270;28;20038;-78
2021/04/29 09:51:58;;;;;;;13.95;8.65;;;;;;;6.52;100.00;100597.28;5163289;28;20165;-76
2021/04/29 09:54:32;;;;;;;16.50;8.80;;;;;;;6.59;100.00;100603.72;5169669;28;20044;-76
2021/04/29 09:57:06;;;;;;;15.23;8.95;;;;;;;6.66;100.00;100610.13;5178362;28;20399;-77
2021/04/29 09:59:48;;;;;;;15.87;8.47;;;;;;;6.70;100.00;100611.53;5172647;28;20038;-77
2021/04/29 10:02:19;;;;;;;11.07;7.85;;;;;;;6.72;100.00;100614.88;5167978;28;20387;-77
2021/04/29 10:04:50;;;;;;;17.98;7.65;;;;;;;6.96;100.00;100619.69;5152291;28;20030;-77
2021/04/29 10:07:22;;;;;;;10.82;6.80;;;;;;;7.01;100.00;100628.09;5175511;28;20025;-77
2021/04/29 10:09:53;;;;;;;11.43;6.57;;;;;;;7.09;100.00;100635.34;5175204;28;20037;-77
2021/04/29 10:12:25;;;;;;;15.68;7.35;;;;;;;7.18;100.00;100633.63;5162671;28;20038;-77
2021/04/29 10:14:56;;;;;;;11.23;7.18;;;;;;;7.16;100.00;100639.09;5173667;28;20483;-76
2021/04/29 10:17:27;;;;;;;12.35;6.88;;;;;;;7.15;100.00;100639.25;5162322;28;20545;-78
2021/04/29 10:19:59;;;;;;;14.95;8.10;;;;;;;7.13;100.00;100635.88;5165152;28;20318;-78
2021/04/29 10:22:30;;;;;;;14.80;6.35;;;;;;;7.13;100.00;100644.75;5181475;28;20033;-78
2021/04/29 10:25:01;;;;;;;13.15;8.02;;;;;;;7.03;100.00;100649.28;5177235;28;20108;-77
2021/04/29 10:27:31;;;;;;;18.45;7.55;;;;;;;6.96;100.00;100651.69;5160548;28;20168;-77
2021/04/29 10:30:08;;;;;;;14.60;7.10;;;;;;;6.87;100.00;100665.91;5174693;28;20030;-78
2021/04/29 10:32:40;;;;;;;12.02;6.85;;;;;;;6.88;100.00;100670.28;5161440;28;20160;-77
2021/04/29 10:35:19;;;;;;;12.00;7.65;;;;;;;6.83;100.00;100672.53;5174081;28;20041;-78
2021/04/29 10:37:54;;;;;;;24.42;13.68;;;;;;;6.76;100.00;100679.41;5163982;28;20030;-76
2021/04/29 10:40:34;;;;;;;13.68;8.73;;;;;;;6.79;100.00;100688.97;5182204;28;20038;-77
2021/04/29 10:43:08;;;;;;;14.82;10.98;;;;;;;6.79;100.00;100688.97;5182763;28;20103;-78
2021/04/29 10:45:39;;;;;;;13.50;9.30;;;;;;;6.82;100.00;100691.31;5182513;28;20311;-78
2021/04/29 10:48:11;;;;;;;19.30;8.30;;;;;;;6.90;100.00;100707.44;5169538;28;20109;-79
2021/04/29 10:50:45;;;;;;;14.65;6.47;;;;;;;7.07;100.00;100705.84;5164945;28;20030;-78
2021/04/29 10:53:30;;;;;;;12.73;7.03;;;;;;;7.30;100.00;100706.31;5185741;28;20030;-80
2021/04/29 10:56:12;;;;;;;11.57;6.18;;;;;;;7.41;100.00;100719.44;5152554;28;20496;-80
2021/04/29 10:58:44;;;;;;;12.63;6.30;;;;;;;7.65;100.00;100719.72;5174096;28;20078;-79
2021/04/29 11:01:18;;;;;;;11.20;7.13;;;;;;;7.84;100.00;100718.75;5179685;28;20032;-80
2021/04/29 11:03:50;;;;;;;12.77;5.93;;;;;;;7.92;100.00;100720.66;5184888;28;20747;-80
2021/04/29 11:06:24;;;;;;;14.55;7.68;;;;;;;7.92;100.00;100718.81;5178084;28;20018;-80
2021/04/29 11:08:57;;;;;;;15.20;7.60;;;;;;;7.93;100.00;100706.28;5187849;28;20346;-80
2021/04/29 11:11:33;;;;;;;13.35;7.75;;;;;;;7.92;100.00;100734.00;5173754;28;20513;-79
2021/04/29 11:14:06;;;;;;;17.65;8.57;;;;;;;8.10;100.00;100737.53;5188121;28;20030;-80
2021/04/29 11:16:45;;;;;;;15.98;8.23;;;;;;;8.23;100.00;100745.16;5175686;28;20069;-80
2021/04/29 11:19:35;;;;;;;15.00;8.13;;;;;;;8.45;100.00;100747.38;5192070;28;20422;-80
2021/04/29 11:22:06;;;;;;;41.80;20.13;;;;;;;8.82;100.00;100744.47;5180375;28;20060;-81
2021/04/29 11:24:40;;;;;;;101.05;35.33;;;;;;;8.94;100.00;100754.94;5184698;28;20034;-80
2021/04/29 11:27:23;;;;;;;19.02;8.35;;;;;;;8.70;100.00;100753.75;5181980;28;20045;-80
2021/04/29 11:30:00;;;;;;;13.15;8.02;;;;;;;8.47;100.00;100756.09;5172761;28;20479;-80